Main page
METAR-TAF:

METAR-TAF

Airports :

Sierra Vista Municipal Airport

Fort Huachuca / Sierra Vista, Arizona, United States

latitude: 31-35N, longitude: 110-20W, elevation: 1438 m

Current weather observation

The report was made 32 minutes ago, at 06:58 UTC
Wind 4 kt from the South
Temperature 6°C
Humidity 56%
Pressure 1024 hPa
Visibility: 14.5 km
Clear sky

METAR: KFHU 130658Z AUTO 18004KT 9SM CLR 06/M02 A3025 RMK AO2 SLP212 T00611018 401880017

Time: 00:30 (07:30 UTC)

Forecast

The report was made 5 hours and 30 minutes ago, at 02:00 UTC
Forecast valid from 13 at 02 UTC to 14 at 08 UTC
Wind 6 kt from variable directions
Visibility 10 km or more
Scattered clouds at a height of 25000 ft

TAF: KFHU 130200Z 1302/1408 VRB06KT 9999 SCT250 QNH3008INS TX19/1322Z TN01/1312Z

Weather observations and forecasts of more than 4000 airports (METAR and TAF reports).

The available stations are represented by yellow and red dots on the map.

Hover mouse over dot to see the name of the station.

Then click to see weather observations and forecasts.

To change the map : click on the green buttons with a black cross to zoom in, on the green button with a dash to zoom out, or on the green arrows for adjacent maps.


METAR-TAF: